sensor_id;sensor_type;location;lat;lon;timestamp;P1;durP1;ratioP1;P2;durP2;ratioP2
58842;SDS011;44614;54.356;10.100;2023-04-03T00:00:58;3.88;;;1.33;;
58842;SDS011;44614;54.356;10.100;2023-04-03T00:03:24;3.35;;;1.17;;
58842;SDS011;44614;54.356;10.100;2023-04-03T00:05:49;2.42;;;0.90;;
58842;SDS011;44614;54.356;10.100;2023-04-03T00:08:15;2.95;;;0.95;;
58842;SDS011;44614;54.356;10.100;2023-04-03T00:10:41;2.90;;;1.25;;
58842;SDS011;44614;54.356;10.100;2023-04-03T00:13:06;1.90;;;1.13;;
58842;SDS011;44614;54.356;10.100;2023-04-03T00:15:32;0.75;;;0.68;;
58842;SDS011;44614;54.356;10.100;2023-04-03T00:17:59;2.42;;;0.95;;
58842;SDS011;44614;54.356;10.100;2023-04-03T00:20:25;2.45;;;1.05;;
58842;SDS011;44614;54.356;10.100;2023-04-03T00:22:52;2.08;;;1.58;;
58842;SDS011;44614;54.356;10.100;2023-04-03T00:25:17;3.03;;;1.30;;
58842;SDS011;44614;54.356;10.100;2023-04-03T00:27:42;2.50;;;1.10;;
58842;SDS011;44614;54.356;10.100;2023-04-03T00:30:08;1.35;;;1.10;;
58842;SDS011;44614;54.356;10.100;2023-04-03T00:32:37;3.40;;;1.30;;
58842;SDS011;44614;54.356;10.100;2023-04-03T00:35:03;4.13;;;1.30;;
58842;SDS011;44614;54.356;10.100;2023-04-03T00:37:28;1.42;;;0.88;;
58842;SDS011;44614;54.356;10.100;2023-04-03T00:39:54;2.97;;;1.15;;
58842;SDS011;44614;54.356;10.100;2023-04-03T00:42:19;3.83;;;1.35;;
58842;SDS011;44614;54.356;10.100;2023-04-03T00:47:11;3.97;;;1.30;;
58842;SDS011;44614;54.356;10.100;2023-04-03T00:49:38;8.00;;;1.92;;
58842;SDS011;44614;54.356;10.100;2023-04-03T00:52:09;6.35;;;1.20;;
58842;SDS011;44614;54.356;10.100;2023-04-03T00:54:37;2.20;;;0.80;;
58842;SDS011;44614;54.356;10.100;2023-04-03T00:57:05;3.42;;;1.25;;
58842;SDS011;44614;54.356;10.100;2023-04-03T00:59:32;3.97;;;1.90;;
58842;SDS011;44614;54.356;10.100;2023-04-03T01:02:00;5.93;;;1.73;;
58842;SDS011;44614;54.356;10.100;2023-04-03T01:04:30;2.95;;;1.40;;
58842;SDS011;44614;54.356;10.100;2023-04-03T01:06:59;4.80;;;1.67;;
58842;SDS011;44614;54.356;10.100;2023-04-03T01:09:27;2.25;;;1.23;;
58842;SDS011;44614;54.356;10.100;2023-04-03T01:11:54;3.22;;;1.50;;
58842;SDS011;44614;54.356;10.100;2023-04-03T01:14:19;3.05;;;1.23;;
58842;SDS011;44614;54.356;10.100;2023-04-03T01:16:54;5.03;;;1.70;;
58842;SDS011;44614;54.356;10.100;2023-04-03T01:19:19;2.95;;;1.13;;
58842;SDS011;44614;54.356;10.100;2023-04-03T01:26:57;3.33;;;2.00;;
58842;SDS011;44614;54.356;10.100;2023-04-03T01:29:23;4.28;;;1.80;;
58842;SDS011;44614;54.356;10.100;2023-04-03T01:34:21;3.10;;;1.38;;
58842;SDS011;44614;54.356;10.100;2023-04-03T01:36:47;4.25;;;1.80;;
58842;SDS011;44614;54.356;10.100;2023-04-03T01:39:13;2.25;;;1.23;;
58842;SDS011;44614;54.356;10.100;2023-04-03T01:41:38;2.63;;;1.38;;
58842;SDS011;44614;54.356;10.100;2023-04-03T01:44:04;5.50;;;1.70;;
58842;SDS011;44614;54.356;10.100;2023-04-03T01:46:29;3.42;;;1.50;;
58842;SDS011;44614;54.356;10.100;2023-04-03T01:48:55;2.28;;;1.33;;
58842;SDS011;44614;54.356;10.100;2023-04-03T01:51:20;2.17;;;1.40;;
58842;SDS011;44614;54.356;10.100;2023-04-03T01:53:45;2.67;;;1.45;;
58842;SDS011;44614;54.356;10.100;2023-04-03T01:56:11;2.90;;;1.15;;
58842;SDS011;44614;54.356;10.100;2023-04-03T01:58:36;5.07;;;2.17;;
58842;SDS011;44614;54.356;10.100;2023-04-03T02:01:02;4.55;;;1.83;;
58842;SDS011;44614;54.356;10.100;2023-04-03T02:03:27;1.48;;;1.20;;
58842;SDS011;44614;54.356;10.100;2023-04-03T02:05:53;3.72;;;1.90;;
58842;SDS011;44614;54.356;10.100;2023-04-03T02:08:18;3.97;;;2.00;;
58842;SDS011;44614;54.356;10.100;2023-04-03T02:10:44;3.30;;;1.42;;
58842;SDS011;44614;54.356;10.100;2023-04-03T02:13:11;2.50;;;2.17;;
58842;SDS011;44614;54.356;10.100;2023-04-03T02:15:40;4.13;;;1.77;;
58842;SDS011;44614;54.356;10.100;2023-04-03T02:18:06;3.25;;;1.23;;
58842;SDS011;44614;54.356;10.100;2023-04-03T02:20:32;2.67;;;1.20;;
58842;SDS011;44614;54.356;10.100;2023-04-03T02:22:57;3.15;;;1.67;;
58842;SDS011;44614;54.356;10.100;2023-04-03T02:25:23;3.53;;;1.80;;
58842;SDS011;44614;54.356;10.100;2023-04-03T02:27:49;1.00;;;0.90;;
58842;SDS011;44614;54.356;10.100;2023-04-03T02:30:15;1.77;;;1.25;;
58842;SDS011;44614;54.356;10.100;2023-04-03T02:32:41;3.45;;;1.40;;
58842;SDS011;44614;54.356;10.100;2023-04-03T02:35:07;3.08;;;1.58;;
58842;SDS011;44614;54.356;10.100;2023-04-03T02:37:34;3.63;;;2.05;;
58842;SDS011;44614;54.356;10.100;2023-04-03T02:39:59;3.78;;;1.70;;
58842;SDS011;44614;54.356;10.100;2023-04-03T02:42:25;2.65;;;1.83;;
58842;SDS011;44614;54.356;10.100;2023-04-03T02:44:50;2.90;;;1.60;;
58842;SDS011;44614;54.356;10.100;2023-04-03T02:47:15;3.83;;;2.20;;
58842;SDS011;44614;54.356;10.100;2023-04-03T02:49:41;3.08;;;1.80;;
58842;SDS011;44614;54.356;10.100;2023-04-03T02:52:08;4.75;;;1.83;;
58842;SDS011;44614;54.356;10.100;2023-04-03T02:54:33;5.88;;;2.63;;
58842;SDS011;44614;54.356;10.100;2023-04-03T02:56:59;4.15;;;2.13;;
58842;SDS011;44614;54.356;10.100;2023-04-03T02:59:24;11.82;;;2.60;;
58842;SDS011;44614;54.356;10.100;2023-04-03T03:01:50;5.85;;;2.25;;
58842;SDS011;44614;54.356;10.100;2023-04-03T03:04:15;6.03;;;2.60;;
58842;SDS011;44614;54.356;10.100;2023-04-03T03:06:40;3.97;;;2.58;;
58842;SDS011;44614;54.356;10.100;2023-04-03T03:09:06;5.13;;;2.05;;
58842;SDS011;44614;54.356;10.100;2023-04-03T03:11:32;3.55;;;2.10;;
58842;SDS011;44614;54.356;10.100;2023-04-03T03:13:57;6.23;;;2.57;;
58842;SDS011;44614;54.356;10.100;2023-04-03T03:16:23;5.82;;;2.10;;
58842;SDS011;44614;54.356;10.100;2023-04-03T03:18:48;5.67;;;1.77;;
58842;SDS011;44614;54.356;10.100;2023-04-03T03:21:13;2.23;;;1.70;;
58842;SDS011;44614;54.356;10.100;2023-04-03T03:23:39;9.18;;;2.10;;
58842;SDS011;44614;54.356;10.100;2023-04-03T03:26:06;6.68;;;2.25;;
58842;SDS011;44614;54.356;10.100;2023-04-03T03:28:34;4.07;;;1.75;;
58842;SDS011;44614;54.356;10.100;2023-04-03T03:33:26;2.77;;;1.70;;
58842;SDS011;44614;54.356;10.100;2023-04-03T03:35:52;3.00;;;1.92;;
58842;SDS011;44614;54.356;10.100;2023-04-03T03:38:18;3.20;;;1.70;;
58842;SDS011;44614;54.356;10.100;2023-04-03T03:40:44;6.55;;;2.35;;
58842;SDS011;44614;54.356;10.100;2023-04-03T03:43:09;2.80;;;1.92;;
58842;SDS011;44614;54.356;10.100;2023-04-03T03:45:34;6.38;;;1.95;;
58842;SDS011;44614;54.356;10.100;2023-04-03T03:48:00;4.00;;;2.03;;
58842;SDS011;44614;54.356;10.100;2023-04-03T03:50:26;3.17;;;1.80;;
58842;SDS011;44614;54.356;10.100;2023-04-03T03:52:51;3.00;;;2.03;;
58842;SDS011;44614;54.356;10.100;2023-04-03T03:55:16;5.43;;;2.25;;
58842;SDS011;44614;54.356;10.100;2023-04-03T03:57:42;6.80;;;2.38;;
58842;SDS011;44614;54.356;10.100;2023-04-03T04:00:08;3.97;;;1.95;;
58842;SDS011;44614;54.356;10.100;2023-04-03T04:02:34;4.25;;;2.45;;
58842;SDS011;44614;54.356;10.100;2023-04-03T04:04:59;6.78;;;2.20;;
58842;SDS011;44614;54.356;10.100;2023-04-03T04:07:25;3.13;;;2.30;;
58842;SDS011;44614;54.356;10.100;2023-04-03T04:09:53;4.45;;;1.83;;
58842;SDS011;44614;54.356;10.100;2023-04-03T04:12:18;3.45;;;2.15;;
58842;SDS011;44614;54.356;10.100;2023-04-03T04:14:45;2.15;;;1.88;;
58842;SDS011;44614;54.356;10.100;2023-04-03T04:17:11;3.40;;;1.90;;
58842;SDS011;44614;54.356;10.100;2023-04-03T04:19:38;4.77;;;2.27;;
58842;SDS011;44614;54.356;10.100;2023-04-03T04:22:03;4.78;;;2.30;;
58842;SDS011;44614;54.356;10.100;2023-04-03T04:24:28;5.05;;;2.35;;
58842;SDS011;44614;54.356;10.100;2023-04-03T04:26:54;7.47;;;2.30;;
58842;SDS011;44614;54.356;10.100;2023-04-03T04:29:20;4.82;;;2.53;;
58842;SDS011;44614;54.356;10.100;2023-04-03T04:31:45;3.88;;;2.13;;
58842;SDS011;44614;54.356;10.100;2023-04-03T04:34:11;6.28;;;2.78;;
58842;SDS011;44614;54.356;10.100;2023-04-03T04:36:37;6.93;;;2.20;;
58842;SDS011;44614;54.356;10.100;2023-04-03T04:39:03;3.80;;;2.15;;
58842;SDS011;44614;54.356;10.100;2023-04-03T04:41:28;7.87;;;2.30;;
58842;SDS011;44614;54.356;10.100;2023-04-03T04:43:53;5.17;;;2.70;;
58842;SDS011;44614;54.356;10.100;2023-04-03T04:46:19;5.15;;;2.65;;
58842;SDS011;44614;54.356;10.100;2023-04-03T04:48:44;6.13;;;2.60;;
58842;SDS011;44614;54.356;10.100;2023-04-03T04:51:10;4.03;;;2.60;;
58842;SDS011;44614;54.356;10.100;2023-04-03T04:53:36;5.53;;;2.30;;
58842;SDS011;44614;54.356;10.100;2023-04-03T04:56:02;4.78;;;2.47;;
58842;SDS011;44614;54.356;10.100;2023-04-03T04:58:28;6.45;;;3.20;;
58842;SDS011;44614;54.356;10.100;2023-04-03T05:01:00;4.80;;;3.78;;
58842;SDS011;44614;54.356;10.100;2023-04-03T05:03:26;5.72;;;3.00;;
58842;SDS011;44614;54.356;10.100;2023-04-03T05:05:51;5.97;;;3.22;;
58842;SDS011;44614;54.356;10.100;2023-04-03T05:08:16;12.03;;;4.53;;
58842;SDS011;44614;54.356;10.100;2023-04-03T05:10:42;9.18;;;3.80;;
58842;SDS011;44614;54.356;10.100;2023-04-03T05:13:07;5.05;;;3.40;;
58842;SDS011;44614;54.356;10.100;2023-04-03T05:15:32;7.90;;;3.67;;
58842;SDS011;44614;54.356;10.100;2023-04-03T05:17:58;9.10;;;4.00;;
58842;SDS011;44614;54.356;10.100;2023-04-03T05:20:24;6.93;;;3.63;;
58842;SDS011;44614;54.356;10.100;2023-04-03T05:22:50;9.82;;;4.80;;
58842;SDS011;44614;54.356;10.100;2023-04-03T05:25:15;9.07;;;5.63;;
58842;SDS011;44614;54.356;10.100;2023-04-03T05:27:40;11.90;;;4.25;;
58842;SDS011;44614;54.356;10.100;2023-04-03T05:30:06;8.55;;;4.00;;
58842;SDS011;44614;54.356;10.100;2023-04-03T05:32:32;5.07;;;3.75;;
58842;SDS011;44614;54.356;10.100;2023-04-03T05:34:57;11.02;;;4.35;;
58842;SDS011;44614;54.356;10.100;2023-04-03T05:37:22;8.80;;;4.97;;
58842;SDS011;44614;54.356;10.100;2023-04-03T05:39:48;7.63;;;3.57;;
58842;SDS011;44614;54.356;10.100;2023-04-03T05:42:13;7.75;;;4.03;;
58842;SDS011;44614;54.356;10.100;2023-04-03T05:44:38;7.78;;;4.20;;
58842;SDS011;44614;54.356;10.100;2023-04-03T05:47:04;7.18;;;3.50;;
58842;SDS011;44614;54.356;10.100;2023-04-03T05:49:30;7.00;;;3.90;;
58842;SDS011;44614;54.356;10.100;2023-04-03T05:51:55;10.27;;;3.90;;
58842;SDS011;44614;54.356;10.100;2023-04-03T05:56:49;10.50;;;5.03;;
58842;SDS011;44614;54.356;10.100;2023-04-03T05:59:16;7.83;;;4.47;;
58842;SDS011;44614;54.356;10.100;2023-04-03T06:01:42;15.77;;;6.63;;
58842;SDS011;44614;54.356;10.100;2023-04-03T06:04:07;13.27;;;5.55;;
58842;SDS011;44614;54.356;10.100;2023-04-03T06:06:43;7.90;;;4.38;;
58842;SDS011;44614;54.356;10.100;2023-04-03T06:09:10;7.53;;;4.82;;
58842;SDS011;44614;54.356;10.100;2023-04-03T06:11:36;6.60;;;4.07;;
58842;SDS011;44614;54.356;10.100;2023-04-03T06:14:01;10.35;;;4.50;;
58842;SDS011;44614;54.356;10.100;2023-04-03T06:16:28;8.50;;;5.00;;
58842;SDS011;44614;54.356;10.100;2023-04-03T06:18:53;9.93;;;4.90;;
58842;SDS011;44614;54.356;10.100;2023-04-03T06:21:19;8.10;;;4.25;;
58842;SDS011;44614;54.356;10.100;2023-04-03T06:23:45;6.87;;;4.77;;
58842;SDS011;44614;54.356;10.100;2023-04-03T06:26:10;8.43;;;4.03;;
58842;SDS011;44614;54.356;10.100;2023-04-03T06:28:36;10.38;;;4.82;;
58842;SDS011;44614;54.356;10.100;2023-04-03T06:31:01;6.57;;;4.43;;
58842;SDS011;44614;54.356;10.100;2023-04-03T06:33:26;8.00;;;3.83;;
58842;SDS011;44614;54.356;10.100;2023-04-03T06:35:55;8.30;;;4.80;;
58842;SDS011;44614;54.356;10.100;2023-04-03T06:38:22;6.32;;;3.85;;
58842;SDS011;44614;54.356;10.100;2023-04-03T06:40:48;7.30;;;4.20;;
58842;SDS011;44614;54.356;10.100;2023-04-03T06:43:13;9.05;;;4.03;;
58842;SDS011;44614;54.356;10.100;2023-04-03T06:45:38;9.00;;;3.77;;
58842;SDS011;44614;54.356;10.100;2023-04-03T06:48:03;9.00;;;5.17;;
58842;SDS011;44614;54.356;10.100;2023-04-03T06:50:29;5.03;;;3.33;;
58842;SDS011;44614;54.356;10.100;2023-04-03T06:52:54;6.95;;;3.72;;
58842;SDS011;44614;54.356;10.100;2023-04-03T06:55:20;7.72;;;4.00;;
58842;SDS011;44614;54.356;10.100;2023-04-03T06:57:45;7.90;;;4.18;;
58842;SDS011;44614;54.356;10.100;2023-04-03T07:00:11;5.35;;;3.50;;
58842;SDS011;44614;54.356;10.100;2023-04-03T07:02:37;13.52;;;3.60;;
58842;SDS011;44614;54.356;10.100;2023-04-03T07:05:02;5.05;;;3.45;;
58842;SDS011;44614;54.356;10.100;2023-04-03T07:07:28;7.03;;;4.43;;
58842;SDS011;44614;54.356;10.100;2023-04-03T07:09:53;6.47;;;3.17;;
58842;SDS011;44614;54.356;10.100;2023-04-03T07:12:18;7.22;;;3.08;;
58842;SDS011;44614;54.356;10.100;2023-04-03T07:14:44;4.90;;;2.80;;
58842;SDS011;44614;54.356;10.100;2023-04-03T07:17:09;3.33;;;2.10;;
58842;SDS011;44614;54.356;10.100;2023-04-03T07:19:34;3.30;;;1.83;;
58842;SDS011;44614;54.356;10.100;2023-04-03T07:22:00;4.90;;;2.15;;
58842;SDS011;44614;54.356;10.100;2023-04-03T07:24:25;4.90;;;2.40;;
58842;SDS011;44614;54.356;10.100;2023-04-03T07:26:54;7.63;;;3.50;;
58842;SDS011;44614;54.356;10.100;2023-04-03T07:29:19;7.20;;;2.38;;
58842;SDS011;44614;54.356;10.100;2023-04-03T07:31:46;4.00;;;2.15;;
58842;SDS011;44614;54.356;10.100;2023-04-03T08:57:17;0.85;;;0.50;;
58842;SDS011;44614;54.356;10.100;2023-04-03T09:00:02;1.45;;;0.40;;
58842;SDS011;44614;54.356;10.100;2023-04-03T09:02:34;1.65;;;0.68;;
58842;SDS011;44614;54.356;10.100;2023-04-03T09:08:03;1.05;;;1.05;;
58842;SDS011;44614;54.356;10.100;2023-04-03T09:10:33;2.38;;;0.40;;
58842;SDS011;44614;54.356;10.100;2023-04-03T09:13:05;1.25;;;0.40;;
58842;SDS011;44614;54.356;10.100;2023-04-03T09:15:38;2.75;;;0.63;;
58842;SDS011;44614;54.356;10.100;2023-04-03T09:23:16;1.45;;;0.40;;
58842;SDS011;44614;54.356;10.100;2023-04-03T09:25:47;1.98;;;0.65;;
58842;SDS011;44614;54.356;10.100;2023-04-03T09:28:14;4.30;;;1.73;;
58842;SDS011;44614;54.356;10.100;2023-04-03T09:33:06;5.63;;;0.60;;
58842;SDS011;44614;54.356;10.100;2023-04-03T09:35:33;1.60;;;0.50;;
58842;SDS011;44614;54.356;10.100;2023-04-03T09:40:37;2.00;;;0.70;;
58842;SDS011;44614;54.356;10.100;2023-04-03T09:43:20;1.40;;;0.75;;
58842;SDS011;44614;54.356;10.100;2023-04-03T09:45:48;1.48;;;0.65;;
58842;SDS011;44614;54.356;10.100;2023-04-03T09:48:16;1.20;;;0.70;;
58842;SDS011;44614;54.356;10.100;2023-04-03T09:55:50;2.67;;;0.60;;
58842;SDS011;44614;54.356;10.100;2023-04-03T09:58:26;2.00;;;0.50;;
58842;SDS011;44614;54.356;10.100;2023-04-03T10:00:55;2.67;;;0.70;;
58842;SDS011;44614;54.356;10.100;2023-04-03T10:05:55;2.40;;;0.80;;
58842;SDS011;44614;54.356;10.100;2023-04-03T10:08:27;2.13;;;0.60;;
58842;SDS011;44614;54.356;10.100;2023-04-03T10:11:14;0.88;;;0.50;;
58842;SDS011;44614;54.356;10.100;2023-04-03T10:13:51;1.33;;;0.43;;
58842;SDS011;44614;54.356;10.100;2023-04-03T10:16:18;2.80;;;0.40;;
58842;SDS011;44614;54.356;10.100;2023-04-03T10:21:35;5.40;;;1.13;;
58842;SDS011;44614;54.356;10.100;2023-04-03T10:31:45;2.63;;;0.43;;
58842;SDS011;44614;54.356;10.100;2023-04-03T10:34:35;1.42;;;0.88;;
58842;SDS011;44614;54.356;10.100;2023-04-03T10:37:10;6.03;;;0.60;;
58842;SDS011;44614;54.356;10.100;2023-04-03T10:48:28;1.95;;;0.82;;
58842;SDS011;44614;54.356;10.100;2023-04-03T10:56:31;0.88;;;0.57;;
58842;SDS011;44614;54.356;10.100;2023-04-03T11:01:44;2.38;;;0.82;;
58842;SDS011;44614;54.356;10.100;2023-04-03T11:04:13;1.83;;;0.50;;
58842;SDS011;44614;54.356;10.100;2023-04-03T11:06:43;0.63;;;0.50;;
58842;SDS011;44614;54.356;10.100;2023-04-03T11:09:19;4.22;;;0.68;;
58842;SDS011;44614;54.356;10.100;2023-04-03T11:11:51;2.72;;;1.55;;
58842;SDS011;44614;54.356;10.100;2023-04-03T11:14:24;0.50;;;0.30;;
58842;SDS011;44614;54.356;10.100;2023-04-03T11:16:59;4.57;;;0.50;;
58842;SDS011;44614;54.356;10.100;2023-04-03T11:22:23;3.15;;;0.43;;
58842;SDS011;44614;54.356;10.100;2023-04-03T11:24:59;1.70;;;0.70;;
58842;SDS011;44614;54.356;10.100;2023-04-03T11:27:37;3.58;;;0.50;;
58842;SDS011;44614;54.356;10.100;2023-04-03T11:30:09;0.40;;;0.40;;
58842;SDS011;44614;54.356;10.100;2023-04-03T11:32:48;1.42;;;0.43;;
58842;SDS011;44614;54.356;10.100;2023-04-03T11:35:35;1.10;;;0.40;;
58842;SDS011;44614;54.356;10.100;2023-04-03T11:38:02;1.42;;;0.43;;
58842;SDS011;44614;54.356;10.100;2023-04-03T11:40:33;3.72;;;0.47;;
58842;SDS011;44614;54.356;10.100;2023-04-03T11:43:06;0.57;;;0.50;;
58842;SDS011;44614;54.356;10.100;2023-04-03T11:50:44;0.68;;;0.30;;
58842;SDS011;44614;54.356;10.100;2023-04-03T11:58:11;1.30;;;0.22;;
58842;SDS011;44614;54.356;10.100;2023-04-03T12:00:49;1.48;;;0.32;;
58842;SDS011;44614;54.356;10.100;2023-04-03T12:13:41;0.80;;;0.63;;
58842;SDS011;44614;54.356;10.100;2023-04-03T12:29:59;0.68;;;0.47;;
58842;SDS011;44614;54.356;10.100;2023-04-03T12:37:48;0.93;;;0.50;;
58842;SDS011;44614;54.356;10.100;2023-04-03T12:40:25;2.63;;;0.68;;
58842;SDS011;44614;54.356;10.100;2023-04-03T12:45:38;0.98;;;0.50;;
58842;SDS011;44614;54.356;10.100;2023-04-03T12:48:09;1.08;;;0.38;;
58842;SDS011;44614;54.356;10.100;2023-04-03T12:50:39;1.52;;;0.30;;
58842;SDS011;44614;54.356;10.100;2023-04-03T12:53:10;7.70;;;0.60;;
58842;SDS011;44614;54.356;10.100;2023-04-03T12:58:52;1.17;;;0.45;;
58842;SDS011;44614;54.356;10.100;2023-04-03T13:01:25;1.20;;;0.47;;
58842;SDS011;44614;54.356;10.100;2023-04-03T13:03:55;1.05;;;0.43;;
58842;SDS011;44614;54.356;10.100;2023-04-03T13:06:55;1.95;;;0.50;;
58842;SDS011;44614;54.356;10.100;2023-04-03T13:09:20;1.95;;;0.40;;
58842;SDS011;44614;54.356;10.100;2023-04-03T13:11:56;1.58;;;0.40;;
58842;SDS011;44614;54.356;10.100;2023-04-03T13:14:23;0.47;;;0.40;;
58842;SDS011;44614;54.356;10.100;2023-04-03T13:17:00;2.08;;;0.43;;
58842;SDS011;44614;54.356;10.100;2023-04-03T13:19:34;1.10;;;0.50;;
58842;SDS011;44614;54.356;10.100;2023-04-03T13:22:04;3.30;;;1.03;;
58842;SDS011;44614;54.356;10.100;2023-04-03T13:24:35;5.03;;;0.47;;
58842;SDS011;44614;54.356;10.100;2023-04-03T13:27:02;0.63;;;0.52;;
58842;SDS011;44614;54.356;10.100;2023-04-03T13:31:56;1.75;;;0.38;;
58842;SDS011;44614;54.356;10.100;2023-04-03T13:41:42;3.60;;;0.60;;
58842;SDS011;44614;54.356;10.100;2023-04-03T13:46:50;1.90;;;0.63;;
58842;SDS011;44614;54.356;10.100;2023-04-03T13:49:21;0.63;;;0.30;;
58842;SDS011;44614;54.356;10.100;2023-04-03T13:51:53;13.15;;;1.00;;
58842;SDS011;44614;54.356;10.100;2023-04-03T13:54:21;2.10;;;0.40;;
58842;SDS011;44614;54.356;10.100;2023-04-03T13:56:53;2.50;;;0.70;;
58842;SDS011;44614;54.356;10.100;2023-04-03T13:59:27;1.48;;;0.50;;
58842;SDS011;44614;54.356;10.100;2023-04-03T14:02:11;1.52;;;0.35;;
58842;SDS011;44614;54.356;10.100;2023-04-03T14:04:51;1.60;;;0.75;;
58842;SDS011;44614;54.356;10.100;2023-04-03T14:07:25;1.73;;;0.52;;
58842;SDS011;44614;54.356;10.100;2023-04-03T14:09:51;1.35;;;0.50;;
58842;SDS011;44614;54.356;10.100;2023-04-03T14:12:21;1.65;;;0.82;;
58842;SDS011;44614;54.356;10.100;2023-04-03T14:14:51;3.10;;;0.70;;
58842;SDS011;44614;54.356;10.100;2023-04-03T14:17:19;5.50;;;0.70;;
58842;SDS011;44614;54.356;10.100;2023-04-03T14:19:46;1.00;;;0.60;;
58842;SDS011;44614;54.356;10.100;2023-04-03T14:24:43;1.08;;;0.47;;
58842;SDS011;44614;54.356;10.100;2023-04-03T14:27:15;4.72;;;0.52;;
58842;SDS011;44614;54.356;10.100;2023-04-03T14:29:41;3.70;;;0.65;;
58842;SDS011;44614;54.356;10.100;2023-04-03T14:32:06;0.80;;;0.50;;
58842;SDS011;44614;54.356;10.100;2023-04-03T14:34:32;3.77;;;0.60;;
58842;SDS011;44614;54.356;10.100;2023-04-03T14:36:57;2.60;;;0.60;;
58842;SDS011;44614;54.356;10.100;2023-04-03T14:39:22;1.87;;;0.57;;
58842;SDS011;44614;54.356;10.100;2023-04-03T14:41:48;1.03;;;0.60;;
58842;SDS011;44614;54.356;10.100;2023-04-03T14:44:13;3.27;;;0.70;;
58842;SDS011;44614;54.356;10.100;2023-04-03T14:46:39;1.17;;;0.90;;
58842;SDS011;44614;54.356;10.100;2023-04-03T14:49:14;1.35;;;0.70;;
58842;SDS011;44614;54.356;10.100;2023-04-03T14:51:42;2.25;;;0.50;;
58842;SDS011;44614;54.356;10.100;2023-04-03T14:54:16;2.77;;;0.50;;
58842;SDS011;44614;54.356;10.100;2023-04-03T14:56:43;0.90;;;0.57;;
58842;SDS011;44614;54.356;10.100;2023-04-03T14:59:09;2.20;;;0.60;;
58842;SDS011;44614;54.356;10.100;2023-04-03T15:01:36;1.08;;;0.52;;
58842;SDS011;44614;54.356;10.100;2023-04-03T15:04:05;1.93;;;0.53;;
58842;SDS011;44614;54.356;10.100;2023-04-03T15:06:35;1.00;;;0.47;;
58842;SDS011;44614;54.356;10.100;2023-04-03T15:09:01;0.50;;;0.40;;
58842;SDS011;44614;54.356;10.100;2023-04-03T15:11:28;1.15;;;0.57;;
58842;SDS011;44614;54.356;10.100;2023-04-03T15:13:53;1.30;;;0.60;;
58842;SDS011;44614;54.356;10.100;2023-04-03T15:16:18;2.87;;;0.70;;
58842;SDS011;44614;54.356;10.100;2023-04-03T15:18:45;2.17;;;0.50;;
58842;SDS011;44614;54.356;10.100;2023-04-03T15:21:12;3.65;;;0.75;;
58842;SDS011;44614;54.356;10.100;2023-04-03T15:23:38;0.50;;;0.50;;
58842;SDS011;44614;54.356;10.100;2023-04-03T15:26:04;3.10;;;0.80;;
58842;SDS011;44614;54.356;10.100;2023-04-03T15:28:31;0.77;;;0.67;;
58842;SDS011;44614;54.356;10.100;2023-04-03T15:31:03;1.38;;;0.77;;
58842;SDS011;44614;54.356;10.100;2023-04-03T15:35:55;3.35;;;1.50;;
58842;SDS011;44614;54.356;10.100;2023-04-03T15:38:20;2.75;;;0.60;;
58842;SDS011;44614;54.356;10.100;2023-04-03T15:40:45;2.58;;;0.95;;
58842;SDS011;44614;54.356;10.100;2023-04-03T15:43:14;2.38;;;1.00;;
58842;SDS011;44614;54.356;10.100;2023-04-03T15:45:40;2.90;;;0.73;;
58842;SDS011;44614;54.356;10.100;2023-04-03T15:48:07;3.45;;;0.40;;
58842;SDS011;44614;54.356;10.100;2023-04-03T15:50:33;1.77;;;0.60;;
58842;SDS011;44614;54.356;10.100;2023-04-03T15:52:59;2.28;;;0.70;;
58842;SDS011;44614;54.356;10.100;2023-04-03T15:57:53;5.55;;;0.93;;
58842;SDS011;44614;54.356;10.100;2023-04-03T16:00:19;0.95;;;0.45;;
58842;SDS011;44614;54.356;10.100;2023-04-03T16:02:45;1.38;;;0.60;;
58842;SDS011;44614;54.356;10.100;2023-04-03T16:05:13;0.75;;;0.68;;
58842;SDS011;44614;54.356;10.100;2023-04-03T16:07:40;2.40;;;0.80;;
58842;SDS011;44614;54.356;10.100;2023-04-03T16:10:07;1.83;;;0.77;;
58842;SDS011;44614;54.356;10.100;2023-04-03T16:12:33;1.05;;;0.65;;
58842;SDS011;44614;54.356;10.100;2023-04-03T16:14:59;0.75;;;0.52;;
58842;SDS011;44614;54.356;10.100;2023-04-03T16:17:26;1.80;;;0.73;;
58842;SDS011;44614;54.356;10.100;2023-04-03T16:19:52;1.48;;;0.90;;
58842;SDS011;44614;54.356;10.100;2023-04-03T16:22:18;4.15;;;0.88;;
58842;SDS011;44614;54.356;10.100;2023-04-03T16:24:44;1.17;;;0.85;;
58842;SDS011;44614;54.356;10.100;2023-04-03T16:27:09;2.72;;;0.70;;
58842;SDS011;44614;54.356;10.100;2023-04-03T16:29:35;3.25;;;0.70;;
58842;SDS011;44614;54.356;10.100;2023-04-03T16:32:01;1.48;;;0.40;;
58842;SDS011;44614;54.356;10.100;2023-04-03T16:34:26;0.93;;;0.57;;
58842;SDS011;44614;54.356;10.100;2023-04-03T16:36:53;2.42;;;0.85;;
58842;SDS011;44614;54.356;10.100;2023-04-03T16:39:19;1.48;;;0.80;;
58842;SDS011;44614;54.356;10.100;2023-04-03T16:41:44;0.30;;;0.30;;
58842;SDS011;44614;54.356;10.100;2023-04-03T16:44:10;2.38;;;0.90;;
58842;SDS011;44614;54.356;10.100;2023-04-03T16:46:36;0.88;;;0.57;;
58842;SDS011;44614;54.356;10.100;2023-04-03T16:49:01;4.97;;;0.73;;
58842;SDS011;44614;54.356;10.100;2023-04-03T16:51:27;1.95;;;1.02;;
58842;SDS011;44614;54.356;10.100;2023-04-03T16:53:52;3.25;;;1.15;;
58842;SDS011;44614;54.356;10.100;2023-04-03T16:56:17;6.93;;;2.57;;
58842;SDS011;44614;54.356;10.100;2023-04-03T16:58:43;4.40;;;1.63;;
58842;SDS011;44614;54.356;10.100;2023-04-03T17:01:09;3.53;;;0.77;;
58842;SDS011;44614;54.356;10.100;2023-04-03T17:03:35;3.33;;;1.42;;
58842;SDS011;44614;54.356;10.100;2023-04-03T17:06:01;1.23;;;0.40;;
58842;SDS011;44614;54.356;10.100;2023-04-03T17:08:26;0.98;;;0.60;;
58842;SDS011;44614;54.356;10.100;2023-04-03T17:10:52;2.28;;;0.80;;
58842;SDS011;44614;54.356;10.100;2023-04-03T17:13:18;0.88;;;0.70;;
58842;SDS011;44614;54.356;10.100;2023-04-03T17:15:44;5.38;;;0.85;;
58842;SDS011;44614;54.356;10.100;2023-04-03T17:18:10;4.95;;;1.58;;
58842;SDS011;44614;54.356;10.100;2023-04-03T17:20:35;1.73;;;0.95;;
58842;SDS011;44614;54.356;10.100;2023-04-03T17:25:28;4.82;;;1.77;;
58842;SDS011;44614;54.356;10.100;2023-04-03T17:27:53;2.72;;;1.00;;
58842;SDS011;44614;54.356;10.100;2023-04-03T17:30:18;3.22;;;0.98;;
58842;SDS011;44614;54.356;10.100;2023-04-03T17:32:44;2.58;;;1.02;;
58842;SDS011;44614;54.356;10.100;2023-04-03T17:35:09;2.83;;;1.13;;
58842;SDS011;44614;54.356;10.100;2023-04-03T17:37:35;3.55;;;1.02;;
58842;SDS011;44614;54.356;10.100;2023-04-03T17:40:00;4.07;;;1.40;;
58842;SDS011;44614;54.356;10.100;2023-04-03T17:42:25;2.15;;;0.90;;
58842;SDS011;44614;54.356;10.100;2023-04-03T17:44:51;1.13;;;0.77;;
58842;SDS011;44614;54.356;10.100;2023-04-03T17:47:16;3.50;;;1.23;;
58842;SDS011;44614;54.356;10.100;2023-04-03T17:49:41;2.65;;;1.20;;
58842;SDS011;44614;54.356;10.100;2023-04-03T17:52:07;1.17;;;0.90;;
58842;SDS011;44614;54.356;10.100;2023-04-03T17:54:32;6.73;;;1.20;;
58842;SDS011;44614;54.356;10.100;2023-04-03T17:56:57;2.10;;;0.70;;
58842;SDS011;44614;54.356;10.100;2023-04-03T17:59:23;3.92;;;0.77;;
58842;SDS011;44614;54.356;10.100;2023-04-03T18:01:48;1.38;;;0.60;;
58842;SDS011;44614;54.356;10.100;2023-04-03T18:04:15;1.63;;;0.82;;
58842;SDS011;44614;54.356;10.100;2023-04-03T18:06:44;2.05;;;0.70;;
58842;SDS011;44614;54.356;10.100;2023-04-03T18:09:16;1.65;;;0.90;;
58842;SDS011;44614;54.356;10.100;2023-04-03T18:11:44;3.47;;;0.90;;